sensor_id;sensor_type;location;lat;lon;timestamp;P1;durP1;ratioP1;P2;durP2;ratioP2
21299;SDS011;10809;49.476;11.016;2023-12-04T00:00:06;11.57;;;6.90;;
21299;SDS011;10809;49.476;11.016;2023-12-04T00:02:42;11.33;;;7.53;;
21299;SDS011;10809;49.476;11.016;2023-12-04T00:05:13;9.80;;;7.20;;
21299;SDS011;10809;49.476;11.016;2023-12-04T00:07:43;12.53;;;8.17;;
21299;SDS011;10809;49.476;11.016;2023-12-04T00:10:14;12.20;;;7.93;;
21299;SDS011;10809;49.476;11.016;2023-12-04T00:12:44;10.33;;;6.70;;
21299;SDS011;10809;49.476;11.016;2023-12-04T00:15:15;12.17;;;7.17;;
21299;SDS011;10809;49.476;11.016;2023-12-04T00:17:46;12.30;;;8.07;;
21299;SDS011;10809;49.476;11.016;2023-12-04T00:20:17;11.60;;;7.73;;
21299;SDS011;10809;49.476;11.016;2023-12-04T00:22:47;14.47;;;8.67;;
21299;SDS011;10809;49.476;11.016;2023-12-04T00:25:21;11.53;;;7.70;;
21299;SDS011;10809;49.476;11.016;2023-12-04T00:27:51;14.40;;;8.57;;
21299;SDS011;10809;49.476;11.016;2023-12-04T00:30:22;12.83;;;8.33;;
21299;SDS011;10809;49.476;11.016;2023-12-04T00:32:52;13.17;;;8.10;;
21299;SDS011;10809;49.476;11.016;2023-12-04T00:35:23;13.60;;;7.50;;
21299;SDS011;10809;49.476;11.016;2023-12-04T00:37:53;11.77;;;8.17;;
21299;SDS011;10809;49.476;11.016;2023-12-04T00:40:23;12.80;;;7.53;;
21299;SDS011;10809;49.476;11.016;2023-12-04T00:42:55;12.83;;;7.67;;
21299;SDS011;10809;49.476;11.016;2023-12-04T00:45:25;11.90;;;7.97;;
21299;SDS011;10809;49.476;11.016;2023-12-04T00:47:55;11.17;;;7.37;;
21299;SDS011;10809;49.476;11.016;2023-12-04T00:50:26;11.17;;;7.00;;
21299;SDS011;10809;49.476;11.016;2023-12-04T00:52:56;10.60;;;6.93;;
21299;SDS011;10809;49.476;11.016;2023-12-04T00:55:27;11.37;;;7.20;;
21299;SDS011;10809;49.476;11.016;2023-12-04T00:57:57;11.20;;;7.13;;
21299;SDS011;10809;49.476;11.016;2023-12-04T01:00:28;12.40;;;7.93;;
21299;SDS011;10809;49.476;11.016;2023-12-04T01:03:04;10.40;;;7.13;;
21299;SDS011;10809;49.476;11.016;2023-12-04T01:05:41;9.93;;;7.10;;
21299;SDS011;10809;49.476;11.016;2023-12-04T01:08:11;11.23;;;6.90;;
21299;SDS011;10809;49.476;11.016;2023-12-04T01:10:41;11.53;;;7.50;;
21299;SDS011;10809;49.476;11.016;2023-12-04T01:13:12;12.90;;;7.63;;
21299;SDS011;10809;49.476;11.016;2023-12-04T01:15:46;12.97;;;7.60;;
21299;SDS011;10809;49.476;11.016;2023-12-04T01:18:18;11.43;;;7.60;;
21299;SDS011;10809;49.476;11.016;2023-12-04T01:20:48;13.17;;;8.20;;
21299;SDS011;10809;49.476;11.016;2023-12-04T01:23:22;11.77;;;8.00;;
21299;SDS011;10809;49.476;11.016;2023-12-04T01:25:52;14.07;;;8.27;;
21299;SDS011;10809;49.476;11.016;2023-12-04T01:28:23;15.47;;;8.77;;
21299;SDS011;10809;49.476;11.016;2023-12-04T01:30:53;13.07;;;7.53;;
21299;SDS011;10809;49.476;11.016;2023-12-04T01:33:24;15.73;;;8.77;;
21299;SDS011;10809;49.476;11.016;2023-12-04T01:35:54;13.93;;;8.50;;
21299;SDS011;10809;49.476;11.016;2023-12-04T01:38:25;13.97;;;8.10;;
21299;SDS011;10809;49.476;11.016;2023-12-04T01:40:55;13.10;;;8.17;;
21299;SDS011;10809;49.476;11.016;2023-12-04T01:43:25;14.40;;;8.37;;
21299;SDS011;10809;49.476;11.016;2023-12-04T01:45:56;13.10;;;8.83;;
21299;SDS011;10809;49.476;11.016;2023-12-04T01:48:27;15.43;;;8.73;;
21299;SDS011;10809;49.476;11.016;2023-12-04T01:50:59;14.77;;;9.93;;
21299;SDS011;10809;49.476;11.016;2023-12-04T01:53:33;14.10;;;9.50;;
21299;SDS011;10809;49.476;11.016;2023-12-04T01:56:06;12.97;;;8.23;;
21299;SDS011;10809;49.476;11.016;2023-12-04T01:58:37;13.60;;;8.87;;
21299;SDS011;10809;49.476;11.016;2023-12-04T02:01:08;12.47;;;8.03;;
21299;SDS011;10809;49.476;11.016;2023-12-04T02:03:40;13.43;;;8.13;;
21299;SDS011;10809;49.476;11.016;2023-12-04T02:06:12;12.97;;;8.13;;
21299;SDS011;10809;49.476;11.016;2023-12-04T02:08:49;13.20;;;7.63;;
21299;SDS011;10809;49.476;11.016;2023-12-04T02:11:19;15.07;;;8.50;;
21299;SDS011;10809;49.476;11.016;2023-12-04T02:13:56;16.03;;;9.20;;
21299;SDS011;10809;49.476;11.016;2023-12-04T02:16:26;14.57;;;9.23;;
21299;SDS011;10809;49.476;11.016;2023-12-04T02:18:59;12.43;;;8.30;;
21299;SDS011;10809;49.476;11.016;2023-12-04T02:21:30;10.77;;;7.83;;
21299;SDS011;10809;49.476;11.016;2023-12-04T02:24:04;12.00;;;7.50;;
21299;SDS011;10809;49.476;11.016;2023-12-04T02:26:38;13.20;;;8.73;;
21299;SDS011;10809;49.476;11.016;2023-12-04T02:29:20;12.00;;;7.30;;
21299;SDS011;10809;49.476;11.016;2023-12-04T02:31:56;14.97;;;8.87;;
21299;SDS011;10809;49.476;11.016;2023-12-04T02:34:28;14.60;;;8.00;;
21299;SDS011;10809;49.476;11.016;2023-12-04T02:37:02;11.57;;;8.13;;
21299;SDS011;10809;49.476;11.016;2023-12-04T02:39:35;12.30;;;8.17;;
21299;SDS011;10809;49.476;11.016;2023-12-04T02:42:06;10.83;;;7.13;;
21299;SDS011;10809;49.476;11.016;2023-12-04T02:44:37;10.77;;;7.50;;
21299;SDS011;10809;49.476;11.016;2023-12-04T02:47:07;13.67;;;7.73;;
21299;SDS011;10809;49.476;11.016;2023-12-04T02:49:37;14.87;;;8.23;;
21299;SDS011;10809;49.476;11.016;2023-12-04T02:52:08;12.50;;;7.27;;
21299;SDS011;10809;49.476;11.016;2023-12-04T02:54:39;11.73;;;7.63;;
21299;SDS011;10809;49.476;11.016;2023-12-04T02:57:09;10.60;;;7.03;;
21299;SDS011;10809;49.476;11.016;2023-12-04T02:59:39;13.73;;;8.00;;
21299;SDS011;10809;49.476;11.016;2023-12-04T03:02:10;10.40;;;7.10;;
21299;SDS011;10809;49.476;11.016;2023-12-04T03:04:40;13.47;;;7.67;;
21299;SDS011;10809;49.476;11.016;2023-12-04T03:07:14;10.93;;;7.23;;
21299;SDS011;10809;49.476;11.016;2023-12-04T03:09:44;10.97;;;7.73;;
21299;SDS011;10809;49.476;11.016;2023-12-04T03:12:15;11.80;;;8.23;;
21299;SDS011;10809;49.476;11.016;2023-12-04T03:14:52;11.37;;;7.77;;
21299;SDS011;10809;49.476;11.016;2023-12-04T03:17:23;10.73;;;7.37;;
21299;SDS011;10809;49.476;11.016;2023-12-04T03:19:53;10.77;;;7.33;;
21299;SDS011;10809;49.476;11.016;2023-12-04T03:22:23;10.30;;;6.87;;
21299;SDS011;10809;49.476;11.016;2023-12-04T03:24:54;12.77;;;8.17;;
21299;SDS011;10809;49.476;11.016;2023-12-04T03:27:24;11.97;;;7.27;;
21299;SDS011;10809;49.476;11.016;2023-12-04T03:29:55;11.13;;;7.33;;
21299;SDS011;10809;49.476;11.016;2023-12-04T03:32:25;12.27;;;7.83;;
21299;SDS011;10809;49.476;11.016;2023-12-04T03:34:55;11.77;;;7.50;;
21299;SDS011;10809;49.476;11.016;2023-12-04T03:37:26;10.97;;;7.07;;
21299;SDS011;10809;49.476;11.016;2023-12-04T03:39:59;9.53;;;7.20;;
21299;SDS011;10809;49.476;11.016;2023-12-04T03:42:30;10.03;;;6.50;;
21299;SDS011;10809;49.476;11.016;2023-12-04T03:45:00;10.20;;;7.17;;
21299;SDS011;10809;49.476;11.016;2023-12-04T03:47:31;10.30;;;6.93;;
21299;SDS011;10809;49.476;11.016;2023-12-04T03:50:01;10.43;;;6.63;;
21299;SDS011;10809;49.476;11.016;2023-12-04T03:52:31;10.60;;;6.10;;
21299;SDS011;10809;49.476;11.016;2023-12-04T03:55:02;9.33;;;5.90;;
21299;SDS011;10809;49.476;11.016;2023-12-04T03:57:33;10.13;;;6.57;;
21299;SDS011;10809;49.476;11.016;2023-12-04T04:00:04;9.37;;;6.50;;
21299;SDS011;10809;49.476;11.016;2023-12-04T04:02:42;10.43;;;7.00;;
21299;SDS011;10809;49.476;11.016;2023-12-04T04:05:13;11.87;;;7.27;;
21299;SDS011;10809;49.476;11.016;2023-12-04T04:07:44;10.10;;;6.73;;
21299;SDS011;10809;49.476;11.016;2023-12-04T04:10:14;8.67;;;6.20;;
21299;SDS011;10809;49.476;11.016;2023-12-04T04:12:45;10.23;;;7.13;;
21299;SDS011;10809;49.476;11.016;2023-12-04T04:15:15;11.57;;;7.00;;
21299;SDS011;10809;49.476;11.016;2023-12-04T04:17:46;12.07;;;7.83;;
21299;SDS011;10809;49.476;11.016;2023-12-04T04:20:16;9.03;;;6.23;;
21299;SDS011;10809;49.476;11.016;2023-12-04T04:22:47;10.17;;;7.13;;
21299;SDS011;10809;49.476;11.016;2023-12-04T04:25:18;10.97;;;6.97;;
21299;SDS011;10809;49.476;11.016;2023-12-04T04:27:51;7.67;;;5.97;;
21299;SDS011;10809;49.476;11.016;2023-12-04T04:30:22;8.90;;;6.33;;
21299;SDS011;10809;49.476;11.016;2023-12-04T04:32:52;12.37;;;6.87;;
21299;SDS011;10809;49.476;11.016;2023-12-04T04:35:23;10.03;;;7.00;;
21299;SDS011;10809;49.476;11.016;2023-12-04T04:37:53;9.43;;;6.30;;
21299;SDS011;10809;49.476;11.016;2023-12-04T04:40:24;9.83;;;6.13;;
21299;SDS011;10809;49.476;11.016;2023-12-04T04:42:54;10.73;;;6.73;;
21299;SDS011;10809;49.476;11.016;2023-12-04T04:45:25;10.47;;;6.83;;
21299;SDS011;10809;49.476;11.016;2023-12-04T04:47:55;12.57;;;6.67;;
21299;SDS011;10809;49.476;11.016;2023-12-04T04:50:25;8.93;;;6.57;;
21299;SDS011;10809;49.476;11.016;2023-12-04T04:52:56;12.57;;;7.13;;
21299;SDS011;10809;49.476;11.016;2023-12-04T04:55:26;10.13;;;6.57;;
21299;SDS011;10809;49.476;11.016;2023-12-04T04:57:57;10.80;;;6.47;;
21299;SDS011;10809;49.476;11.016;2023-12-04T05:00:27;12.27;;;7.70;;
21299;SDS011;10809;49.476;11.016;2023-12-04T05:02:57;9.67;;;6.43;;
21299;SDS011;10809;49.476;11.016;2023-12-04T05:05:28;9.17;;;6.10;;
21299;SDS011;10809;49.476;11.016;2023-12-04T05:07:58;9.80;;;6.50;;
21299;SDS011;10809;49.476;11.016;2023-12-04T05:10:29;10.17;;;6.87;;
21299;SDS011;10809;49.476;11.016;2023-12-04T05:12:59;9.30;;;6.57;;
21299;SDS011;10809;49.476;11.016;2023-12-04T05:15:30;8.87;;;6.20;;
21299;SDS011;10809;49.476;11.016;2023-12-04T05:18:00;9.83;;;6.70;;
21299;SDS011;10809;49.476;11.016;2023-12-04T05:20:31;9.90;;;6.50;;
21299;SDS011;10809;49.476;11.016;2023-12-04T05:23:01;8.63;;;5.80;;
21299;SDS011;10809;49.476;11.016;2023-12-04T05:25:35;8.50;;;6.50;;
21299;SDS011;10809;49.476;11.016;2023-12-04T05:28:05;8.53;;;6.07;;
21299;SDS011;10809;49.476;11.016;2023-12-04T05:30:36;9.63;;;6.60;;
21299;SDS011;10809;49.476;11.016;2023-12-04T05:33:06;9.73;;;6.53;;
21299;SDS011;10809;49.476;11.016;2023-12-04T05:35:43;8.33;;;5.73;;
21299;SDS011;10809;49.476;11.016;2023-12-04T05:38:17;10.20;;;6.50;;
21299;SDS011;10809;49.476;11.016;2023-12-04T05:40:50;9.27;;;6.27;;
21299;SDS011;10809;49.476;11.016;2023-12-04T05:43:21;9.43;;;6.13;;
21299;SDS011;10809;49.476;11.016;2023-12-04T05:45:51;8.67;;;6.27;;
21299;SDS011;10809;49.476;11.016;2023-12-04T05:48:22;10.17;;;6.60;;
21299;SDS011;10809;49.476;11.016;2023-12-04T05:50:52;8.90;;;6.27;;
21299;SDS011;10809;49.476;11.016;2023-12-04T05:53:23;10.33;;;6.47;;
21299;SDS011;10809;49.476;11.016;2023-12-04T05:55:53;10.17;;;5.87;;
21299;SDS011;10809;49.476;11.016;2023-12-04T05:58:24;8.10;;;5.20;;
21299;SDS011;10809;49.476;11.016;2023-12-04T06:00:54;7.63;;;5.43;;
21299;SDS011;10809;49.476;11.016;2023-12-04T06:03:24;11.07;;;6.47;;
21299;SDS011;10809;49.476;11.016;2023-12-04T06:05:55;8.57;;;6.17;;
21299;SDS011;10809;49.476;11.016;2023-12-04T06:08:25;8.77;;;5.90;;
21299;SDS011;10809;49.476;11.016;2023-12-04T06:10:56;10.83;;;5.90;;
21299;SDS011;10809;49.476;11.016;2023-12-04T06:13:26;11.30;;;6.27;;
21299;SDS011;10809;49.476;11.016;2023-12-04T06:15:57;8.13;;;5.60;;
21299;SDS011;10809;49.476;11.016;2023-12-04T06:18:27;8.10;;;5.40;;
21299;SDS011;10809;49.476;11.016;2023-12-04T06:20:57;9.43;;;6.83;;
21299;SDS011;10809;49.476;11.016;2023-12-04T06:23:28;8.40;;;5.33;;
21299;SDS011;10809;49.476;11.016;2023-12-04T06:25:59;8.73;;;5.67;;
21299;SDS011;10809;49.476;11.016;2023-12-04T06:28:30;9.77;;;6.37;;
21299;SDS011;10809;49.476;11.016;2023-12-04T06:31:00;10.10;;;6.20;;
21299;SDS011;10809;49.476;11.016;2023-12-04T06:33:31;8.53;;;5.63;;
21299;SDS011;10809;49.476;11.016;2023-12-04T06:36:02;11.13;;;6.53;;
21299;SDS011;10809;49.476;11.016;2023-12-04T06:38:33;9.90;;;6.90;;
21299;SDS011;10809;49.476;11.016;2023-12-04T06:41:08;10.63;;;5.97;;
21299;SDS011;10809;49.476;11.016;2023-12-04T06:43:39;8.80;;;6.07;;
21299;SDS011;10809;49.476;11.016;2023-12-04T06:46:10;8.30;;;6.13;;
21299;SDS011;10809;49.476;11.016;2023-12-04T06:48:44;8.17;;;5.70;;
21299;SDS011;10809;49.476;11.016;2023-12-04T06:51:16;10.43;;;6.43;;
21299;SDS011;10809;49.476;11.016;2023-12-04T06:53:46;9.70;;;6.53;;
21299;SDS011;10809;49.476;11.016;2023-12-04T06:56:16;8.70;;;6.03;;
21299;SDS011;10809;49.476;11.016;2023-12-04T06:58:47;10.70;;;6.97;;
21299;SDS011;10809;49.476;11.016;2023-12-04T07:01:17;9.60;;;6.23;;
21299;SDS011;10809;49.476;11.016;2023-12-04T07:03:48;8.20;;;6.23;;
21299;SDS011;10809;49.476;11.016;2023-12-04T07:06:18;9.63;;;6.13;;
21299;SDS011;10809;49.476;11.016;2023-12-04T07:08:49;11.43;;;6.90;;
21299;SDS011;10809;49.476;11.016;2023-12-04T07:11:19;8.77;;;5.80;;
21299;SDS011;10809;49.476;11.016;2023-12-04T07:13:52;9.57;;;6.27;;
21299;SDS011;10809;49.476;11.016;2023-12-04T07:16:23;9.17;;;5.73;;
21299;SDS011;10809;49.476;11.016;2023-12-04T07:18:53;8.03;;;5.87;;
21299;SDS011;10809;49.476;11.016;2023-12-04T07:21:24;8.63;;;5.33;;
21299;SDS011;10809;49.476;11.016;2023-12-04T07:23:56;9.10;;;5.93;;
21299;SDS011;10809;49.476;11.016;2023-12-04T07:26:26;8.17;;;5.87;;
21299;SDS011;10809;49.476;11.016;2023-12-04T07:28:57;8.27;;;5.10;;
21299;SDS011;10809;49.476;11.016;2023-12-04T07:31:27;7.63;;;5.07;;
21299;SDS011;10809;49.476;11.016;2023-12-04T07:33:58;8.33;;;5.33;;
21299;SDS011;10809;49.476;11.016;2023-12-04T07:36:31;7.00;;;4.90;;
21299;SDS011;10809;49.476;11.016;2023-12-04T07:39:01;8.20;;;4.77;;
21299;SDS011;10809;49.476;11.016;2023-12-04T07:41:32;7.17;;;4.87;;
21299;SDS011;10809;49.476;11.016;2023-12-04T07:44:03;7.77;;;5.83;;
21299;SDS011;10809;49.476;11.016;2023-12-04T07:46:33;8.80;;;5.57;;
21299;SDS011;10809;49.476;11.016;2023-12-04T07:49:04;6.73;;;4.63;;
21299;SDS011;10809;49.476;11.016;2023-12-04T07:51:34;7.13;;;5.00;;
21299;SDS011;10809;49.476;11.016;2023-12-04T07:54:05;5.63;;;4.73;;
21299;SDS011;10809;49.476;11.016;2023-12-04T07:56:35;7.10;;;5.03;;
21299;SDS011;10809;49.476;11.016;2023-12-04T07:59:06;7.10;;;4.97;;
21299;SDS011;10809;49.476;11.016;2023-12-04T08:01:36;11.23;;;5.17;;
21299;SDS011;10809;49.476;11.016;2023-12-04T08:04:07;6.83;;;4.90;;
21299;SDS011;10809;49.476;11.016;2023-12-04T08:06:37;7.37;;;4.80;;
21299;SDS011;10809;49.476;11.016;2023-12-04T08:09:07;6.63;;;4.63;;
21299;SDS011;10809;49.476;11.016;2023-12-04T08:11:40;5.40;;;3.90;;
21299;SDS011;10809;49.476;11.016;2023-12-04T08:14:10;6.90;;;5.20;;
21299;SDS011;10809;49.476;11.016;2023-12-04T08:16:41;6.17;;;4.80;;
21299;SDS011;10809;49.476;11.016;2023-12-04T08:19:11;9.40;;;4.63;;
21299;SDS011;10809;49.476;11.016;2023-12-04T08:21:42;6.03;;;4.73;;
21299;SDS011;10809;49.476;11.016;2023-12-04T08:24:12;6.73;;;4.60;;
21299;SDS011;10809;49.476;11.016;2023-12-04T08:26:42;6.43;;;4.87;;
21299;SDS011;10809;49.476;11.016;2023-12-04T08:29:19;6.23;;;3.97;;
21299;SDS011;10809;49.476;11.016;2023-12-04T08:31:49;6.30;;;4.10;;
21299;SDS011;10809;49.476;11.016;2023-12-04T08:34:20;5.13;;;4.37;;
21299;SDS011;10809;49.476;11.016;2023-12-04T08:36:51;6.60;;;3.87;;
21299;SDS011;10809;49.476;11.016;2023-12-04T08:39:27;6.10;;;3.50;;
21299;SDS011;10809;49.476;11.016;2023-12-04T08:41:58;6.07;;;4.00;;
21299;SDS011;10809;49.476;11.016;2023-12-04T08:44:28;6.87;;;4.37;;
21299;SDS011;10809;49.476;11.016;2023-12-04T08:46:58;5.50;;;3.87;;
21299;SDS011;10809;49.476;11.016;2023-12-04T08:49:30;4.63;;;3.47;;
21299;SDS011;10809;49.476;11.016;2023-12-04T08:52:00;5.97;;;3.87;;
21299;SDS011;10809;49.476;11.016;2023-12-04T08:54:40;5.03;;;3.97;;
21299;SDS011;10809;49.476;11.016;2023-12-04T08:57:13;9.23;;;3.70;;
21299;SDS011;10809;49.476;11.016;2023-12-04T08:59:43;5.63;;;3.63;;
21299;SDS011;10809;49.476;11.016;2023-12-04T09:02:14;6.33;;;4.00;;
21299;SDS011;10809;49.476;11.016;2023-12-04T09:04:47;6.53;;;4.27;;
21299;SDS011;10809;49.476;11.016;2023-12-04T09:07:18;6.27;;;4.23;;
21299;SDS011;10809;49.476;11.016;2023-12-04T09:09:48;7.63;;;4.37;;
21299;SDS011;10809;49.476;11.016;2023-12-04T09:12:19;5.10;;;3.93;;
21299;SDS011;10809;49.476;11.016;2023-12-04T09:14:49;6.20;;;4.23;;
21299;SDS011;10809;49.476;11.016;2023-12-04T09:17:23;5.90;;;3.93;;
21299;SDS011;10809;49.476;11.016;2023-12-04T09:19:53;4.97;;;4.00;;
21299;SDS011;10809;49.476;11.016;2023-12-04T09:22:24;6.97;;;4.13;;
21299;SDS011;10809;49.476;11.016;2023-12-04T09:24:54;4.30;;;3.50;;
21299;SDS011;10809;49.476;11.016;2023-12-04T09:27:25;4.93;;;3.43;;
21299;SDS011;10809;49.476;11.016;2023-12-04T09:29:55;3.37;;;3.00;;
21299;SDS011;10809;49.476;11.016;2023-12-04T09:32:26;4.47;;;3.57;;
21299;SDS011;10809;49.476;11.016;2023-12-04T09:34:56;5.33;;;3.10;;
21299;SDS011;10809;49.476;11.016;2023-12-04T09:37:33;4.90;;;3.43;;
21299;SDS011;10809;49.476;11.016;2023-12-04T09:40:03;4.70;;;3.50;;
21299;SDS011;10809;49.476;11.016;2023-12-04T09:42:35;4.93;;;3.30;;
21299;SDS011;10809;49.476;11.016;2023-12-04T09:45:06;7.87;;;3.90;;
21299;SDS011;10809;49.476;11.016;2023-12-04T09:47:38;4.00;;;3.10;;
21299;SDS011;10809;49.476;11.016;2023-12-04T09:50:09;4.67;;;3.40;;
21299;SDS011;10809;49.476;11.016;2023-12-04T09:52:40;5.13;;;3.30;;
21299;SDS011;10809;49.476;11.016;2023-12-04T09:55:11;5.27;;;3.47;;
21299;SDS011;10809;49.476;11.016;2023-12-04T09:57:42;3.73;;;3.30;;
21299;SDS011;10809;49.476;11.016;2023-12-04T10:00:14;4.50;;;3.30;;
21299;SDS011;10809;49.476;11.016;2023-12-04T10:02:45;3.73;;;3.20;;
21299;SDS011;10809;49.476;11.016;2023-12-04T10:05:19;6.17;;;3.43;;
21299;SDS011;10809;49.476;11.016;2023-12-04T10:07:52;4.80;;;3.13;;
21299;SDS011;10809;49.476;11.016;2023-12-04T10:10:22;6.33;;;3.53;;
21299;SDS011;10809;49.476;11.016;2023-12-04T10:12:52;4.30;;;3.17;;
21299;SDS011;10809;49.476;11.016;2023-12-04T10:15:23;4.20;;;3.00;;
21299;SDS011;10809;49.476;11.016;2023-12-04T10:17:54;5.57;;;3.47;;
21299;SDS011;10809;49.476;11.016;2023-12-04T10:20:24;6.07;;;3.97;;
21299;SDS011;10809;49.476;11.016;2023-12-04T10:22:55;3.47;;;3.00;;
21299;SDS011;10809;49.476;11.016;2023-12-04T10:25:29;5.87;;;4.03;;
21299;SDS011;10809;49.476;11.016;2023-12-04T10:28:10;5.13;;;3.50;;
21299;SDS011;10809;49.476;11.016;2023-12-04T10:30:42;6.83;;;3.73;;
21299;SDS011;10809;49.476;11.016;2023-12-04T10:33:13;4.77;;;3.90;;
21299;SDS011;10809;49.476;11.016;2023-12-04T10:35:44;6.33;;;4.30;;
21299;SDS011;10809;49.476;11.016;2023-12-04T10:38:17;4.90;;;3.70;;
21299;SDS011;10809;49.476;11.016;2023-12-04T10:40:48;5.20;;;3.50;;
21299;SDS011;10809;49.476;11.016;2023-12-04T10:43:19;6.73;;;4.03;;
21299;SDS011;10809;49.476;11.016;2023-12-04T10:45:51;5.00;;;3.93;;
21299;SDS011;10809;49.476;11.016;2023-12-04T10:48:23;5.37;;;3.60;;
21299;SDS011;10809;49.476;11.016;2023-12-04T10:50:53;4.93;;;3.37;;
21299;SDS011;10809;49.476;11.016;2023-12-04T10:53:24;4.17;;;3.03;;
21299;SDS011;10809;49.476;11.016;2023-12-04T10:55:54;4.00;;;3.23;;
21299;SDS011;10809;49.476;11.016;2023-12-04T10:58:28;3.93;;;3.03;;
21299;SDS011;10809;49.476;11.016;2023-12-04T11:01:00;3.13;;;2.33;;
21299;SDS011;10809;49.476;11.016;2023-12-04T11:03:32;3.43;;;2.57;;
21299;SDS011;10809;49.476;11.016;2023-12-04T11:06:06;2.43;;;2.20;;
21299;SDS011;10809;49.476;11.016;2023-12-04T11:08:41;4.17;;;2.70;;
21299;SDS011;10809;49.476;11.016;2023-12-04T11:11:15;3.17;;;2.43;;
21299;SDS011;10809;49.476;11.016;2023-12-04T11:13:54;3.60;;;2.67;;
21299;SDS011;10809;49.476;11.016;2023-12-04T11:22:37;3.47;;;2.50;;
21299;SDS011;10809;49.476;11.016;2023-12-04T11:25:14;2.80;;;2.40;;
21299;SDS011;10809;49.476;11.016;2023-12-04T11:27:46;4.73;;;2.73;;
21299;SDS011;10809;49.476;11.016;2023-12-04T11:30:16;3.77;;;2.83;;
21299;SDS011;10809;49.476;11.016;2023-12-04T11:32:50;3.37;;;2.50;;
21299;SDS011;10809;49.476;11.016;2023-12-04T11:35:21;2.43;;;2.23;;
21299;SDS011;10809;49.476;11.016;2023-12-04T11:37:55;4.37;;;2.40;;
21299;SDS011;10809;49.476;11.016;2023-12-04T11:40:25;3.60;;;2.47;;
21299;SDS011;10809;49.476;11.016;2023-12-04T11:42:57;3.07;;;2.23;;
21299;SDS011;10809;49.476;11.016;2023-12-04T11:45:28;3.63;;;2.47;;
21299;SDS011;10809;49.476;11.016;2023-12-04T11:48:02;3.37;;;2.33;;
21299;SDS011;10809;49.476;11.016;2023-12-04T11:50:33;4.77;;;2.97;;
21299;SDS011;10809;49.476;11.016;2023-12-04T11:53:03;4.13;;;2.53;;
21299;SDS011;10809;49.476;11.016;2023-12-04T11:55:34;3.50;;;2.67;;
21299;SDS011;10809;49.476;11.016;2023-12-04T11:58:09;3.80;;;2.57;;
21299;SDS011;10809;49.476;11.016;2023-12-04T12:00:41;3.17;;;2.33;;
21299;SDS011;10809;49.476;11.016;2023-12-04T12:03:13;3.53;;;2.00;;
21299;SDS011;10809;49.476;11.016;2023-12-04T12:05:45;3.17;;;2.47;;
21299;SDS011;10809;49.476;11.016;2023-12-04T12:08:18;3.17;;;2.40;;
21299;SDS011;10809;49.476;11.016;2023-12-04T12:10:49;2.73;;;2.23;;
21299;SDS011;10809;49.476;11.016;2023-12-04T12:13:20;3.47;;;2.70;;
21299;SDS011;10809;49.476;11.016;2023-12-04T12:15:51;3.90;;;2.77;;
21299;SDS011;10809;49.476;11.016;2023-12-04T12:18:22;3.10;;;2.53;;
21299;SDS011;10809;49.476;11.016;2023-12-04T12:20:56;3.03;;;2.30;;
21299;SDS011;10809;49.476;11.016;2023-12-04T12:23:28;2.93;;;2.37;;
21299;SDS011;10809;49.476;11.016;2023-12-04T12:25:59;3.30;;;2.60;;
21299;SDS011;10809;49.476;11.016;2023-12-04T12:28:30;5.43;;;2.97;;
21299;SDS011;10809;49.476;11.016;2023-12-04T12:31:04;5.87;;;2.80;;
21299;SDS011;10809;49.476;11.016;2023-12-04T12:33:34;3.57;;;2.53;;
21299;SDS011;10809;49.476;11.016;2023-12-04T12:36:05;4.47;;;2.77;;
21299;SDS011;10809;49.476;11.016;2023-12-04T12:38:36;3.70;;;3.00;;
21299;SDS011;10809;49.476;11.016;2023-12-04T12:41:07;6.60;;;2.87;;
21299;SDS011;10809;49.476;11.016;2023-12-04T12:43:43;4.40;;;3.10;;
21299;SDS011;10809;49.476;11.016;2023-12-04T12:46:14;5.33;;;3.37;;
21299;SDS011;10809;49.476;11.016;2023-12-04T12:48:44;5.27;;;3.27;;
21299;SDS011;10809;49.476;11.016;2023-12-04T12:51:14;3.30;;;2.77;;
21299;SDS011;10809;49.476;11.016;2023-12-04T12:53:45;5.27;;;3.10;;
21299;SDS011;10809;49.476;11.016;2023-12-04T12:56:16;4.60;;;2.93;;
21299;SDS011;10809;49.476;11.016;2023-12-04T12:58:49;4.17;;;2.57;;
21299;SDS011;10809;49.476;11.016;2023-12-04T13:01:22;5.23;;;2.57;;
21299;SDS011;10809;49.476;11.016;2023-12-04T13:03:56;6.70;;;2.90;;
21299;SDS011;10809;49.476;11.016;2023-12-04T13:06:27;8.37;;;3.33;;
21299;SDS011;10809;49.476;11.016;2023-12-04T13:08:57;5.20;;;3.27;;
21299;SDS011;10809;49.476;11.016;2023-12-04T13:11:27;4.67;;;3.33;;
21299;SDS011;10809;49.476;11.016;2023-12-04T13:13:59;4.60;;;3.47;;
21299;SDS011;10809;49.476;11.016;2023-12-04T13:16:29;4.97;;;3.17;;
21299;SDS011;10809;49.476;11.016;2023-12-04T13:19:00;4.87;;;3.67;;
21299;SDS011;10809;49.476;11.016;2023-12-04T13:21:31;4.83;;;3.30;;
21299;SDS011;10809;49.476;11.016;2023-12-04T13:24:01;5.20;;;3.27;;
21299;SDS011;10809;49.476;11.016;2023-12-04T13:26:36;4.00;;;3.23;;
21299;SDS011;10809;49.476;11.016;2023-12-04T13:29:10;4.67;;;3.23;;
21299;SDS011;10809;49.476;11.016;2023-12-04T13:31:41;5.70;;;3.17;;
21299;SDS011;10809;49.476;11.016;2023-12-04T13:34:12;4.77;;;3.40;;
21299;SDS011;10809;49.476;11.016;2023-12-04T13:36:42;5.47;;;3.50;;
21299;SDS011;10809;49.476;11.016;2023-12-04T13:39:13;4.50;;;3.30;;
21299;SDS011;10809;49.476;11.016;2023-12-04T13:41:47;3.90;;;3.17;;
21299;SDS011;10809;49.476;11.016;2023-12-04T13:44:36;3.77;;;2.90;;
21299;SDS011;10809;49.476;11.016;2023-12-04T13:47:09;5.30;;;3.33;;
21299;SDS011;10809;49.476;11.016;2023-12-04T13:49:45;3.87;;;3.23;;
21299;SDS011;10809;49.476;11.016;2023-12-04T13:52:23;6.53;;;3.50;;
21299;SDS011;10809;49.476;11.016;2023-12-04T13:54:53;7.70;;;3.33;;
21299;SDS011;10809;49.476;11.016;2023-12-04T13:57:25;4.53;;;3.17;;
21299;SDS011;10809;49.476;11.016;2023-12-04T14:00:03;4.87;;;3.47;;
21299;SDS011;10809;49.476;11.016;2023-12-04T14:02:34;3.60;;;2.73;;
21299;SDS011;10809;49.476;11.016;2023-12-04T14:05:07;4.23;;;3.50;;
21299;SDS011;10809;49.476;11.016;2023-12-04T14:07:38;4.80;;;3.27;;
21299;SDS011;10809;49.476;11.016;2023-12-04T14:10:09;4.57;;;3.30;;
21299;SDS011;10809;49.476;11.016;2023-12-04T14:12:42;3.83;;;3.03;;
21299;SDS011;10809;49.476;11.016;2023-12-04T14:15:13;3.80;;;2.87;;
21299;SDS011;10809;49.476;11.016;2023-12-04T14:17:43;3.77;;;3.20;;
21299;SDS011;10809;49.476;11.016;2023-12-04T14:20:13;3.83;;;2.80;;
21299;SDS011;10809;49.476;11.016;2023-12-04T14:22:51;3.47;;;2.77;;
21299;SDS011;10809;49.476;11.016;2023-12-04T14:25:21;4.00;;;3.07;;
21299;SDS011;10809;49.476;11.016;2023-12-04T14:27:52;2.83;;;2.40;;
21299;SDS011;10809;49.476;11.016;2023-12-04T14:30:22;4.27;;;3.00;;
21299;SDS011;10809;49.476;11.016;2023-12-04T14:32:53;3.40;;;3.00;;
21299;SDS011;10809;49.476;11.016;2023-12-04T14:35:24;3.73;;;2.93;;
21299;SDS011;10809;49.476;11.016;2023-12-04T14:37:55;4.87;;;3.07;;
21299;SDS011;10809;49.476;11.016;2023-12-04T14:40:26;3.83;;;2.77;;
21299;SDS011;10809;49.476;11.016;2023-12-04T14:42:56;4.37;;;2.67;;
21299;SDS011;10809;49.476;11.016;2023-12-04T14:45:27;3.40;;;2.70;;
21299;SDS011;10809;49.476;11.016;2023-12-04T14:47:58;3.87;;;3.10;;
21299;SDS011;10809;49.476;11.016;2023-12-04T14:50:29;3.63;;;2.37;;
21299;SDS011;10809;49.476;11.016;2023-12-04T14:53:02;2.97;;;2.60;;
21299;SDS011;10809;49.476;11.016;2023-12-04T14:55:52;4.17;;;2.77;;
21299;SDS011;10809;49.476;11.016;2023-12-04T14:58:42;4.00;;;2.57;;
21299;SDS011;10809;49.476;11.016;2023-12-04T15:01:37;2.97;;;2.40;;